sensor_id;sensor_type;location;lat;lon;timestamp;temperature;humidity
10306;DHT22;5198;52.382;9.020;2023-06-26T00:02:05;22.50;99.90
10306;DHT22;5198;52.382;9.020;2023-06-26T00:06:07;22.50;99.90
10306;DHT22;5198;52.382;9.020;2023-06-26T00:10:10;22.40;99.90
10306;DHT22;5198;52.382;9.020;2023-06-26T00:14:15;22.30;99.90
10306;DHT22;5198;52.382;9.020;2023-06-26T00:18:17;22.30;99.90
10306;DHT22;5198;52.382;9.020;2023-06-26T00:22:21;22.20;99.90
10306;DHT22;5198;52.382;9.020;2023-06-26T00:26:24;22.20;99.90
10306;DHT22;5198;52.382;9.020;2023-06-26T00:30:28;22.10;99.90
10306;DHT22;5198;52.382;9.020;2023-06-26T00:34:31;22.10;99.90
10306;DHT22;5198;52.382;9.020;2023-06-26T00:38:34;22.00;99.90
10306;DHT22;5198;52.382;9.020;2023-06-26T00:42:37;21.90;99.90
10306;DHT22;5198;52.382;9.020;2023-06-26T00:46:41;21.90;99.90
10306;DHT22;5198;52.382;9.020;2023-06-26T00:50:44;21.80;99.90
10306;DHT22;5198;52.382;9.020;2023-06-26T00:54:47;21.70;99.90
10306;DHT22;5198;52.382;9.020;2023-06-26T00:58:52;21.70;99.90
10306;DHT22;5198;52.382;9.020;2023-06-26T01:02:57;21.60;99.90
10306;DHT22;5198;52.382;9.020;2023-06-26T01:07:01;21.50;99.90
10306;DHT22;5198;52.382;9.020;2023-06-26T01:11:05;21.50;99.90
10306;DHT22;5198;52.382;9.020;2023-06-26T01:15:08;21.50;99.90
10306;DHT22;5198;52.382;9.020;2023-06-26T01:19:13;21.40;99.90
10306;DHT22;5198;52.382;9.020;2023-06-26T01:23:22;21.30;99.90
10306;DHT22;5198;52.382;9.020;2023-06-26T01:27:26;21.30;99.90
10306;DHT22;5198;52.382;9.020;2023-06-26T01:31:29;21.30;99.90
10306;DHT22;5198;52.382;9.020;2023-06-26T01:35:33;21.30;99.90
10306;DHT22;5198;52.382;9.020;2023-06-26T01:39:36;21.30;99.90
10306;DHT22;5198;52.382;9.020;2023-06-26T01:43:43;21.30;99.90
10306;DHT22;5198;52.382;9.020;2023-06-26T01:47:49;21.30;99.90
10306;DHT22;5198;52.382;9.020;2023-06-26T01:51:55;21.30;99.90
10306;DHT22;5198;52.382;9.020;2023-06-26T01:56:03;21.20;99.90
10306;DHT22;5198;52.382;9.020;2023-06-26T02:00:11;21.20;99.90
10306;DHT22;5198;52.382;9.020;2023-06-26T02:04:14;21.20;99.90
10306;DHT22;5198;52.382;9.020;2023-06-26T02:08:17;21.20;99.90
10306;DHT22;5198;52.382;9.020;2023-06-26T02:12:20;21.20;99.90
10306;DHT22;5198;52.382;9.020;2023-06-26T02:16:24;21.30;99.90
10306;DHT22;5198;52.382;9.020;2023-06-26T02:20:27;21.30;99.90
10306;DHT22;5198;52.382;9.020;2023-06-26T02:24:30;21.30;99.90
10306;DHT22;5198;52.382;9.020;2023-06-26T02:28:34;21.30;99.90
10306;DHT22;5198;52.382;9.020;2023-06-26T02:32:38;21.40;99.90
10306;DHT22;5198;52.382;9.020;2023-06-26T02:36:41;21.30;99.90
10306;DHT22;5198;52.382;9.020;2023-06-26T02:40:44;21.30;99.90
10306;DHT22;5198;52.382;9.020;2023-06-26T02:44:47;21.40;99.90
10306;DHT22;5198;52.382;9.020;2023-06-26T02:48:51;21.40;99.90
10306;DHT22;5198;52.382;9.020;2023-06-26T02:52:54;21.40;99.90
10306;DHT22;5198;52.382;9.020;2023-06-26T02:56:57;21.30;99.90
10306;DHT22;5198;52.382;9.020;2023-06-26T03:01:01;21.40;99.90
10306;DHT22;5198;52.382;9.020;2023-06-26T03:05:05;21.40;99.90
10306;DHT22;5198;52.382;9.020;2023-06-26T03:09:08;21.40;99.90
10306;DHT22;5198;52.382;9.020;2023-06-26T03:13:11;21.40;99.90
10306;DHT22;5198;52.382;9.020;2023-06-26T03:17:14;21.30;99.90
10306;DHT22;5198;52.382;9.020;2023-06-26T03:21:18;21.30;99.90
10306;DHT22;5198;52.382;9.020;2023-06-26T03:25:21;21.30;99.90
10306;DHT22;5198;52.382;9.020;2023-06-26T03:29:24;21.40;99.90
10306;DHT22;5198;52.382;9.020;2023-06-26T03:33:27;21.40;99.90
10306;DHT22;5198;52.382;9.020;2023-06-26T03:37:31;21.40;99.90
10306;DHT22;5198;52.382;9.020;2023-06-26T03:41:34;21.40;99.90
10306;DHT22;5198;52.382;9.020;2023-06-26T03:45:37;21.40;99.90
10306;DHT22;5198;52.382;9.020;2023-06-26T03:49:40;21.40;99.90
10306;DHT22;5198;52.382;9.020;2023-06-26T03:53:45;21.40;99.90
10306;DHT22;5198;52.382;9.020;2023-06-26T03:57:47;21.40;99.90
10306;DHT22;5198;52.382;9.020;2023-06-26T04:01:50;21.40;99.90
10306;DHT22;5198;52.382;9.020;2023-06-26T04:05:54;21.40;99.90
10306;DHT22;5198;52.382;9.020;2023-06-26T04:09:59;21.50;99.90
10306;DHT22;5198;52.382;9.020;2023-06-26T04:14:01;21.50;99.90
10306;DHT22;5198;52.382;9.020;2023-06-26T04:18:05;21.50;99.90
10306;DHT22;5198;52.382;9.020;2023-06-26T04:22:07;21.50;99.90
10306;DHT22;5198;52.382;9.020;2023-06-26T04:26:12;21.50;99.90
10306;DHT22;5198;52.382;9.020;2023-06-26T04:30:16;21.50;99.90
10306;DHT22;5198;52.382;9.020;2023-06-26T04:34:19;21.50;99.90
10306;DHT22;5198;52.382;9.020;2023-06-26T04:38:21;21.50;99.90
10306;DHT22;5198;52.382;9.020;2023-06-26T04:42:26;21.60;99.90
10306;DHT22;5198;52.382;9.020;2023-06-26T04:46:29;21.60;99.90
10306;DHT22;5198;52.382;9.020;2023-06-26T04:50:32;21.60;99.90
10306;DHT22;5198;52.382;9.020;2023-06-26T04:54:35;21.70;99.90
10306;DHT22;5198;52.382;9.020;2023-06-26T04:58:39;21.80;99.90
10306;DHT22;5198;52.382;9.020;2023-06-26T05:02:42;21.80;99.90
10306;DHT22;5198;52.382;9.020;2023-06-26T05:06:45;21.90;99.90
10306;DHT22;5198;52.382;9.020;2023-06-26T05:10:48;22.00;99.90
10306;DHT22;5198;52.382;9.020;2023-06-26T05:14:52;22.00;99.90
10306;DHT22;5198;52.382;9.020;2023-06-26T05:18:55;22.10;99.90
10306;DHT22;5198;52.382;9.020;2023-06-26T05:22:58;22.20;99.90
10306;DHT22;5198;52.382;9.020;2023-06-26T05:27:02;22.30;99.90
10306;DHT22;5198;52.382;9.020;2023-06-26T05:31:06;22.30;99.90
10306;DHT22;5198;52.382;9.020;2023-06-26T05:35:09;22.40;99.90
10306;DHT22;5198;52.382;9.020;2023-06-26T05:39:13;22.50;99.90
10306;DHT22;5198;52.382;9.020;2023-06-26T05:43:16;22.50;99.90
10306;DHT22;5198;52.382;9.020;2023-06-26T05:47:28;22.60;99.90
10306;DHT22;5198;52.382;9.020;2023-06-26T05:51:32;22.70;99.90
10306;DHT22;5198;52.382;9.020;2023-06-26T05:55:35;22.80;99.90
10306;DHT22;5198;52.382;9.020;2023-06-26T05:59:39;22.90;99.90
10306;DHT22;5198;52.382;9.020;2023-06-26T06:03:44;23.00;99.90
10306;DHT22;5198;52.382;9.020;2023-06-26T06:07:47;23.20;99.90
10306;DHT22;5198;52.382;9.020;2023-06-26T06:11:50;23.20;99.90
10306;DHT22;5198;52.382;9.020;2023-06-26T06:15:52;23.30;99.90
10306;DHT22;5198;52.382;9.020;2023-06-26T06:19:58;23.40;99.90
10306;DHT22;5198;52.382;9.020;2023-06-26T06:24:01;23.50;99.90
10306;DHT22;5198;52.382;9.020;2023-06-26T06:28:04;23.60;99.90
10306;DHT22;5198;52.382;9.020;2023-06-26T06:32:08;23.70;99.90
10306;DHT22;5198;52.382;9.020;2023-06-26T06:36:12;23.80;99.90
10306;DHT22;5198;52.382;9.020;2023-06-26T06:40:15;23.90;99.90
10306;DHT22;5198;52.382;9.020;2023-06-26T06:44:18;24.00;99.90
10306;DHT22;5198;52.382;9.020;2023-06-26T06:48:20;24.10;99.90
10306;DHT22;5198;52.382;9.020;2023-06-26T06:52:25;24.20;99.90
10306;DHT22;5198;52.382;9.020;2023-06-26T06:56:28;24.30;99.90
10306;DHT22;5198;52.382;9.020;2023-06-26T07:00:31;24.40;99.90
10306;DHT22;5198;52.382;9.020;2023-06-26T07:04:34;24.50;99.90
10306;DHT22;5198;52.382;9.020;2023-06-26T07:08:38;24.60;99.90
10306;DHT22;5198;52.382;9.020;2023-06-26T07:12:41;24.60;99.90
10306;DHT22;5198;52.382;9.020;2023-06-26T07:16:45;24.80;99.90
10306;DHT22;5198;52.382;9.020;2023-06-26T07:20:48;24.90;99.90
10306;DHT22;5198;52.382;9.020;2023-06-26T07:24:52;24.90;99.90
10306;DHT22;5198;52.382;9.020;2023-06-26T07:28:55;25.10;99.90
10306;DHT22;5198;52.382;9.020;2023-06-26T07:32:58;25.20;99.90
10306;DHT22;5198;52.382;9.020;2023-06-26T07:37:01;25.30;99.90
10306;DHT22;5198;52.382;9.020;2023-06-26T07:41:05;25.40;99.90
10306;DHT22;5198;52.382;9.020;2023-06-26T07:45:09;25.50;99.90
10306;DHT22;5198;52.382;9.020;2023-06-26T07:49:13;25.60;99.90
10306;DHT22;5198;52.382;9.020;2023-06-26T07:53:16;25.70;99.90
10306;DHT22;5198;52.382;9.020;2023-06-26T08:01:24;25.90;99.90
10306;DHT22;5198;52.382;9.020;2023-06-26T08:05:27;26.00;99.90
10306;DHT22;5198;52.382;9.020;2023-06-26T08:09:30;26.00;99.90
10306;DHT22;5198;52.382;9.020;2023-06-26T08:13:34;26.10;99.90
10306;DHT22;5198;52.382;9.020;2023-06-26T08:17:38;26.20;99.90
10306;DHT22;5198;52.382;9.020;2023-06-26T08:21:41;26.30;99.90
10306;DHT22;5198;52.382;9.020;2023-06-26T08:25:44;26.40;99.90
10306;DHT22;5198;52.382;9.020;2023-06-26T08:58:14;27.20;99.90
10306;DHT22;5198;52.382;9.020;2023-06-26T09:02:17;27.30;99.90
10306;DHT22;5198;52.382;9.020;2023-06-26T09:06:22;27.40;99.90
10306;DHT22;5198;52.382;9.020;2023-06-26T09:10:25;27.40;99.90
10306;DHT22;5198;52.382;9.020;2023-06-26T09:14:30;27.40;99.90
10306;DHT22;5198;52.382;9.020;2023-06-26T09:18:32;27.30;99.90
10306;DHT22;5198;52.382;9.020;2023-06-26T09:22:36;27.20;99.90
10306;DHT22;5198;52.382;9.020;2023-06-26T09:26:40;27.00;99.90
10306;DHT22;5198;52.382;9.020;2023-06-26T09:30:45;26.80;99.90
10306;DHT22;5198;52.382;9.020;2023-06-26T09:34:48;26.70;99.90
10306;DHT22;5198;52.382;9.020;2023-06-26T09:38:54;26.40;99.90
10306;DHT22;5198;52.382;9.020;2023-06-26T09:43:02;26.20;99.90
10306;DHT22;5198;52.382;9.020;2023-06-26T09:47:06;26.10;99.90
10306;DHT22;5198;52.382;9.020;2023-06-26T09:51:09;26.00;99.90
10306;DHT22;5198;52.382;9.020;2023-06-26T09:55:15;26.10;99.90
10306;DHT22;5198;52.382;9.020;2023-06-26T09:59:18;26.30;99.90
10306;DHT22;5198;52.382;9.020;2023-06-26T10:03:22;26.50;99.90
10306;DHT22;5198;52.382;9.020;2023-06-26T10:07:25;26.70;99.90
10306;DHT22;5198;52.382;9.020;2023-06-26T10:11:30;26.90;99.90
10306;DHT22;5198;52.382;9.020;2023-06-26T10:15:34;27.10;99.90
10306;DHT22;5198;52.382;9.020;2023-06-26T10:19:39;27.10;99.90
10306;DHT22;5198;52.382;9.020;2023-06-26T10:23:44;27.20;99.90
10306;DHT22;5198;52.382;9.020;2023-06-26T10:27:49;27.30;99.90
10306;DHT22;5198;52.382;9.020;2023-06-26T10:31:54;27.40;99.90
10306;DHT22;5198;52.382;9.020;2023-06-26T10:36:13;27.30;99.90
10306;DHT22;5198;52.382;9.020;2023-06-26T10:40:21;27.20;99.90
10306;DHT22;5198;52.382;9.020;2023-06-26T10:44:24;27.00;99.90
10306;DHT22;5198;52.382;9.020;2023-06-26T10:48:28;26.90;99.90
10306;DHT22;5198;52.382;9.020;2023-06-26T10:52:37;26.70;99.90
10306;DHT22;5198;52.382;9.020;2023-06-26T10:56:43;26.60;99.90
10306;DHT22;5198;52.382;9.020;2023-06-26T11:00:49;26.50;99.90
10306;DHT22;5198;52.382;9.020;2023-06-26T11:04:52;26.40;99.90
10306;DHT22;5198;52.382;9.020;2023-06-26T11:09:00;26.30;99.90
10306;DHT22;5198;52.382;9.020;2023-06-26T11:13:03;26.20;99.90
10306;DHT22;5198;52.382;9.020;2023-06-26T11:17:07;26.10;99.90
10306;DHT22;5198;52.382;9.020;2023-06-26T11:21:10;26.10;99.90
10306;DHT22;5198;52.382;9.020;2023-06-26T11:25:17;26.10;99.90
10306;DHT22;5198;52.382;9.020;2023-06-26T11:29:22;26.30;99.90
10306;DHT22;5198;52.382;9.020;2023-06-26T11:33:26;26.60;99.90
10306;DHT22;5198;52.382;9.020;2023-06-26T11:37:29;26.80;99.90
10306;DHT22;5198;52.382;9.020;2023-06-26T11:41:33;26.80;99.90
10306;DHT22;5198;52.382;9.020;2023-06-26T11:45:36;27.00;99.90
10306;DHT22;5198;52.382;9.020;2023-06-26T11:49:41;27.20;99.90
10306;DHT22;5198;52.382;9.020;2023-06-26T11:53:45;27.30;99.90
10306;DHT22;5198;52.382;9.020;2023-06-26T11:57:50;27.60;99.90
10306;DHT22;5198;52.382;9.020;2023-06-26T12:01:55;27.80;99.90
10306;DHT22;5198;52.382;9.020;2023-06-26T12:05:57;28.00;99.90
10306;DHT22;5198;52.382;9.020;2023-06-26T12:10:02;28.10;99.90
10306;DHT22;5198;52.382;9.020;2023-06-26T12:14:07;28.20;99.90
10306;DHT22;5198;52.382;9.020;2023-06-26T12:18:11;28.20;99.80
10306;DHT22;5198;52.382;9.020;2023-06-26T12:22:15;28.20;99.90
10306;DHT22;5198;52.382;9.020;2023-06-26T12:26:21;28.30;99.90
10306;DHT22;5198;52.382;9.020;2023-06-26T12:30:27;28.30;98.70
10306;DHT22;5198;52.382;9.020;2023-06-26T12:34:30;28.40;97.30
10306;DHT22;5198;52.382;9.020;2023-06-26T12:38:33;28.40;98.80
10306;DHT22;5198;52.382;9.020;2023-06-26T12:42:36;28.40;99.50
10306;DHT22;5198;52.382;9.020;2023-06-26T12:46:40;28.60;99.40
10306;DHT22;5198;52.382;9.020;2023-06-26T12:50:44;28.60;97.90
10306;DHT22;5198;52.382;9.020;2023-06-26T12:54:51;28.70;98.10
10306;DHT22;5198;52.382;9.020;2023-06-26T12:58:54;28.80;98.60
10306;DHT22;5198;52.382;9.020;2023-06-26T13:02:58;28.90;98.40
10306;DHT22;5198;52.382;9.020;2023-06-26T13:07:01;28.90;98.00
10306;DHT22;5198;52.382;9.020;2023-06-26T13:11:04;28.90;98.50
10306;DHT22;5198;52.382;9.020;2023-06-26T13:15:08;28.90;97.40
10306;DHT22;5198;52.382;9.020;2023-06-26T13:19:12;28.90;97.60
10306;DHT22;5198;52.382;9.020;2023-06-26T13:23:15;28.80;97.90
10306;DHT22;5198;52.382;9.020;2023-06-26T13:27:20;28.90;98.30
10306;DHT22;5198;52.382;9.020;2023-06-26T13:31:22;28.70;95.90
10306;DHT22;5198;52.382;9.020;2023-06-26T13:35:27;28.60;97.40
10306;DHT22;5198;52.382;9.020;2023-06-26T13:39:30;28.60;97.20
10306;DHT22;5198;52.382;9.020;2023-06-26T13:43:33;28.50;97.50
10306;DHT22;5198;52.382;9.020;2023-06-26T13:47:36;28.60;96.80
10306;DHT22;5198;52.382;9.020;2023-06-26T13:51:44;28.60;97.70
10306;DHT22;5198;52.382;9.020;2023-06-26T13:55:48;28.60;97.90
10306;DHT22;5198;52.382;9.020;2023-06-26T13:59:51;28.60;97.40
10306;DHT22;5198;52.382;9.020;2023-06-26T14:03:54;28.60;98.10
10306;DHT22;5198;52.382;9.020;2023-06-26T14:07:59;28.50;97.40
10306;DHT22;5198;52.382;9.020;2023-06-26T14:12:02;28.50;97.50
10306;DHT22;5198;52.382;9.020;2023-06-26T14:16:06;28.30;97.10
10306;DHT22;5198;52.382;9.020;2023-06-26T14:20:09;28.10;96.20
10306;DHT22;5198;52.382;9.020;2023-06-26T14:24:16;27.90;95.80
10306;DHT22;5198;52.382;9.020;2023-06-26T14:28:19;27.70;96.00
10306;DHT22;5198;52.382;9.020;2023-06-26T14:32:22;27.70;95.70
10306;DHT22;5198;52.382;9.020;2023-06-26T14:36:25;27.60;96.50
10306;DHT22;5198;52.382;9.020;2023-06-26T14:40:29;27.60;95.30
10306;DHT22;5198;52.382;9.020;2023-06-26T14:44:33;27.50;95.50
10306;DHT22;5198;52.382;9.020;2023-06-26T14:48:36;27.50;95.60
10306;DHT22;5198;52.382;9.020;2023-06-26T14:52:39;27.50;95.50
10306;DHT22;5198;52.382;9.020;2023-06-26T14:56:43;27.60;95.90
10306;DHT22;5198;52.382;9.020;2023-06-26T15:00:47;27.70;96.70
10306;DHT22;5198;52.382;9.020;2023-06-26T15:04:50;27.80;96.10
10306;DHT22;5198;52.382;9.020;2023-06-26T15:08:53;27.90;96.30
10306;DHT22;5198;52.382;9.020;2023-06-26T15:12:58;28.10;94.90
10306;DHT22;5198;52.382;9.020;2023-06-26T15:17:00;28.10;95.40
10306;DHT22;5198;52.382;9.020;2023-06-26T15:21:03;28.10;94.90
10306;DHT22;5198;52.382;9.020;2023-06-26T15:25:07;28.00;93.80
10306;DHT22;5198;52.382;9.020;2023-06-26T15:29:11;27.70;93.80
10306;DHT22;5198;52.382;9.020;2023-06-26T15:33:16;27.60;93.70
10306;DHT22;5198;52.382;9.020;2023-06-26T15:37:19;27.50;93.90
10306;DHT22;5198;52.382;9.020;2023-06-26T15:41:22;27.40;93.90
10306;DHT22;5198;52.382;9.020;2023-06-26T15:45:26;27.40;93.40
10306;DHT22;5198;52.382;9.020;2023-06-26T15:49:29;27.40;94.80
10306;DHT22;5198;52.382;9.020;2023-06-26T15:53:36;27.40;94.50
10306;DHT22;5198;52.382;9.020;2023-06-26T15:57:39;27.20;93.10
10306;DHT22;5198;52.382;9.020;2023-06-26T16:01:43;27.10;93.60
10306;DHT22;5198;52.382;9.020;2023-06-26T16:05:47;27.00;93.20
10306;DHT22;5198;52.382;9.020;2023-06-26T16:09:50;26.80;93.50
10306;DHT22;5198;52.382;9.020;2023-06-26T16:13:53;26.80;93.50
10306;DHT22;5198;52.382;9.020;2023-06-26T16:17:58;26.70;93.00
10306;DHT22;5198;52.382;9.020;2023-06-26T16:22:01;26.50;93.20
10306;DHT22;5198;52.382;9.020;2023-06-26T16:26:03;26.50;93.70
10306;DHT22;5198;52.382;9.020;2023-06-26T16:30:07;26.40;93.40
10306;DHT22;5198;52.382;9.020;2023-06-26T16:34:11;26.20;94.00
10306;DHT22;5198;52.382;9.020;2023-06-26T16:38:14;26.20;94.10
10306;DHT22;5198;52.382;9.020;2023-06-26T16:42:17;26.10;94.20
10306;DHT22;5198;52.382;9.020;2023-06-26T16:46:22;26.00;94.30
10306;DHT22;5198;52.382;9.020;2023-06-26T16:50:26;25.90;93.90
10306;DHT22;5198;52.382;9.020;2023-06-26T16:54:29;25.80;93.60
10306;DHT22;5198;52.382;9.020;2023-06-26T16:58:32;25.70;93.90
10306;DHT22;5198;52.382;9.020;2023-06-26T17:02:34;25.60;93.70
10306;DHT22;5198;52.382;9.020;2023-06-26T17:06:39;25.40;93.40
10306;DHT22;5198;52.382;9.020;2023-06-26T17:10:42;25.30;93.70
10306;DHT22;5198;52.382;9.020;2023-06-26T17:14:45;25.10;92.80
10306;DHT22;5198;52.382;9.020;2023-06-26T17:18:47;25.00;93.70
10306;DHT22;5198;52.382;9.020;2023-06-26T17:22:52;24.80;93.60
10306;DHT22;5198;52.382;9.020;2023-06-26T17:27:06;24.70;93.80
10306;DHT22;5198;52.382;9.020;2023-06-26T17:31:09;24.60;94.20
10306;DHT22;5198;52.382;9.020;2023-06-26T17:35:12;24.50;94.10
10306;DHT22;5198;52.382;9.020;2023-06-26T17:39:17;24.40;94.20
10306;DHT22;5198;52.382;9.020;2023-06-26T17:43:21;24.30;94.30
10306;DHT22;5198;52.382;9.020;2023-06-26T17:47:24;24.20;94.40
10306;DHT22;5198;52.382;9.020;2023-06-26T17:51:27;24.10;94.10
10306;DHT22;5198;52.382;9.020;2023-06-26T17:55:32;24.00;93.80
10306;DHT22;5198;52.382;9.020;2023-06-26T17:59:34;24.00;94.20
10306;DHT22;5198;52.382;9.020;2023-06-26T18:03:37;23.90;94.20
10306;DHT22;5198;52.382;9.020;2023-06-26T18:07:40;23.80;94.20
10306;DHT22;5198;52.382;9.020;2023-06-26T18:12:05;23.80;94.30
10306;DHT22;5198;52.382;9.020;2023-06-26T18:16:08;23.70;94.40
10306;DHT22;5198;52.382;9.020;2023-06-26T18:20:11;23.70;94.50
10306;DHT22;5198;52.382;9.020;2023-06-26T18:24:14;23.60;94.40
10306;DHT22;5198;52.382;9.020;2023-06-26T18:28:18;23.50;94.40
10306;DHT22;5198;52.382;9.020;2023-06-26T18:32:21;23.40;94.30
10306;DHT22;5198;52.382;9.020;2023-06-26T18:36:24;23.20;94.40
10306;DHT22;5198;52.382;9.020;2023-06-26T18:40:29;23.10;94.40
10306;DHT22;5198;52.382;9.020;2023-06-26T18:44:33;23.00;94.50
10306;DHT22;5198;52.382;9.020;2023-06-26T18:48:36;22.90;94.60
10306;DHT22;5198;52.382;9.020;2023-06-26T18:52:39;22.80;94.60
10306;DHT22;5198;52.382;9.020;2023-06-26T18:56:42;22.70;94.70
10306;DHT22;5198;52.382;9.020;2023-06-26T19:00:46;22.60;94.70
10306;DHT22;5198;52.382;9.020;2023-06-26T19:04:49;22.40;94.70
10306;DHT22;5198;52.382;9.020;2023-06-26T19:08:52;22.30;94.70
10306;DHT22;5198;52.382;9.020;2023-06-26T19:12:55;22.20;94.80
10306;DHT22;5198;52.382;9.020;2023-06-26T19:17:00;22.10;95.00
10306;DHT22;5198;52.382;9.020;2023-06-26T19:21:03;21.90;94.90
10306;DHT22;5198;52.382;9.020;2023-06-26T19:25:06;21.80;94.90
10306;DHT22;5198;52.382;9.020;2023-06-26T19:29:12;21.70;95.00
10306;DHT22;5198;52.382;9.020;2023-06-26T19:33:17;21.60;94.90
10306;DHT22;5198;52.382;9.020;2023-06-26T19:37:20;21.50;95.10
10306;DHT22;5198;52.382;9.020;2023-06-26T19:41:22;21.40;95.30
10306;DHT22;5198;52.382;9.020;2023-06-26T19:45:25;21.30;95.20
10306;DHT22;5198;52.382;9.020;2023-06-26T19:49:30;21.20;95.60
10306;DHT22;5198;52.382;9.020;2023-06-26T19:53:32;21.10;95.50
10306;DHT22;5198;52.382;9.020;2023-06-26T19:57:36;21.10;95.60
10306;DHT22;5198;52.382;9.020;2023-06-26T20:01:39;21.00;95.40
10306;DHT22;5198;52.382;9.020;2023-06-26T20:05:45;20.80;95.50
10306;DHT22;5198;52.382;9.020;2023-06-26T20:09:48;20.80;95.70
10306;DHT22;5198;52.382;9.020;2023-06-26T20:13:50;20.70;96.80
10306;DHT22;5198;52.382;9.020;2023-06-26T20:17:53;20.50;96.90
10306;DHT22;5198;52.382;9.020;2023-06-26T20:21:58;20.40;96.50
10306;DHT22;5198;52.382;9.020;2023-06-26T20:26:01;20.30;96.30
10306;DHT22;5198;52.382;9.020;2023-06-26T20:30:04;20.30;96.60
10306;DHT22;5198;52.382;9.020;2023-06-26T20:34:07;20.10;96.40
10306;DHT22;5198;52.382;9.020;2023-06-26T20:38:12;20.10;96.40
10306;DHT22;5198;52.382;9.020;2023-06-26T20:42:15;20.00;96.60
10306;DHT22;5198;52.382;9.020;2023-06-26T20:46:18;19.90;96.50
10306;DHT22;5198;52.382;9.020;2023-06-26T20:50:25;19.80;96.50
10306;DHT22;5198;52.382;9.020;2023-06-26T20:54:29;19.70;96.50
10306;DHT22;5198;52.382;9.020;2023-06-26T20:58:32;19.60;96.40
10306;DHT22;5198;52.382;9.020;2023-06-26T21:02:35;19.50;96.90
10306;DHT22;5198;52.382;9.020;2023-06-26T21:06:38;19.40;97.10
10306;DHT22;5198;52.382;9.020;2023-06-26T21:10:43;19.40;96.80
10306;DHT22;5198;52.382;9.020;2023-06-26T21:14:46;19.30;96.60
10306;DHT22;5198;52.382;9.020;2023-06-26T21:18:48;19.20;96.70
10306;DHT22;5198;52.382;9.020;2023-06-26T21:22:51;19.20;96.50
10306;DHT22;5198;52.382;9.020;2023-06-26T21:26:56;19.20;96.30
10306;DHT22;5198;52.382;9.020;2023-06-26T21:30:58;19.10;96.50
10306;DHT22;5198;52.382;9.020;2023-06-26T21:35:01;19.10;97.50
10306;DHT22;5198;52.382;9.020;2023-06-26T21:39:05;19.10;97.60
10306;DHT22;5198;52.382;9.020;2023-06-26T21:43:09;19.00;97.40
10306;DHT22;5198;52.382;9.020;2023-06-26T21:47:12;19.00;97.50
10306;DHT22;5198;52.382;9.020;2023-06-26T21:51:15;18.90;97.50
10306;DHT22;5198;52.382;9.020;2023-06-26T21:55:18;18.80;97.10
10306;DHT22;5198;52.382;9.020;2023-06-26T21:59:22;18.70;97.10
10306;DHT22;5198;52.382;9.020;2023-06-26T22:03:26;18.60;97.90
10306;DHT22;5198;52.382;9.020;2023-06-26T22:07:29;18.60;97.90
10306;DHT22;5198;52.382;9.020;2023-06-26T22:11:43;18.40;97.90
10306;DHT22;5198;52.382;9.020;2023-06-26T22:15:48;18.40;97.60
10306;DHT22;5198;52.382;9.020;2023-06-26T22:19:51;18.30;97.60
10306;DHT22;5198;52.382;9.020;2023-06-26T22:23:55;18.20;97.80
10306;DHT22;5198;52.382;9.020;2023-06-26T22:27:58;18.10;97.50
10306;DHT22;5198;52.382;9.020;2023-06-26T22:32:02;18.00;97.50
10306;DHT22;5198;52.382;9.020;2023-06-26T22:36:06;17.90;97.60
10306;DHT22;5198;52.382;9.020;2023-06-26T22:40:09;17.80;97.30
10306;DHT22;5198;52.382;9.020;2023-06-26T22:44:12;17.70;97.30
10306;DHT22;5198;52.382;9.020;2023-06-26T22:48:17;17.70;97.60
10306;DHT22;5198;52.382;9.020;2023-06-26T22:52:20;17.60;97.50
10306;DHT22;5198;52.382;9.020;2023-06-26T22:56:23;17.50;97.30
10306;DHT22;5198;52.382;9.020;2023-06-26T23:00:28;17.50;96.90
10306;DHT22;5198;52.382;9.020;2023-06-26T23:04:32;17.40;97.10
10306;DHT22;5198;52.382;9.020;2023-06-26T23:08:35;17.30;97.70
10306;DHT22;5198;52.382;9.020;2023-06-26T23:12:38;17.30;97.30
10306;DHT22;5198;52.382;9.020;2023-06-26T23:16:41;17.20;97.90
10306;DHT22;5198;52.382;9.020;2023-06-26T23:20:45;17.20;97.50
10306;DHT22;5198;52.382;9.020;2023-06-26T23:24:48;17.10;97.60
10306;DHT22;5198;52.382;9.020;2023-06-26T23:28:52;17.10;98.00
10306;DHT22;5198;52.382;9.020;2023-06-26T23:32:55;17.00;98.20
10306;DHT22;5198;52.382;9.020;2023-06-26T23:36:59;17.00;97.90
10306;DHT22;5198;52.382;9.020;2023-06-26T23:41:02;16.90;97.50
10306;DHT22;5198;52.382;9.020;2023-06-26T23:45:05;16.90;97.90
10306;DHT22;5198;52.382;9.020;2023-06-26T23:49:09;16.80;98.10
10306;DHT22;5198;52.382;9.020;2023-06-26T23:53:13;16.70;98.10
10306;DHT22;5198;52.382;9.020;2023-06-26T23:57:16;16.70;98.20
